sensor_id;sensor_type;location;lat;lon;timestamp;pressure;altitude;pressure_sealevel;temperature;humidity
75425;BME280;64007;50.632;13.700;2023-06-26T00:02:13;98118.38;;;16.91;100.00
75425;BME280;64007;50.632;13.700;2023-06-26T00:04:39;98119.72;;;16.87;100.00
75425;BME280;64007;50.632;13.700;2023-06-26T00:07:05;98115.84;;;16.81;100.00
75425;BME280;64007;50.632;13.700;2023-06-26T00:09:32;98118.47;;;16.73;100.00
75425;BME280;64007;50.632;13.700;2023-06-26T00:11:58;98120.78;;;16.68;100.00
75425;BME280;64007;50.632;13.700;2023-06-26T00:14:25;98117.41;;;16.66;100.00
75425;BME280;64007;50.632;13.700;2023-06-26T00:16:51;98120.03;;;16.58;100.00
75425;BME280;64007;50.632;13.700;2023-06-26T00:19:17;98114.97;;;16.55;100.00
75425;BME280;64007;50.632;13.700;2023-06-26T00:21:43;98114.47;;;16.51;100.00
75425;BME280;64007;50.632;13.700;2023-06-26T00:24:14;98113.09;;;16.47;100.00
75425;BME280;64007;50.632;13.700;2023-06-26T00:26:40;98111.19;;;16.40;100.00
75425;BME280;64007;50.632;13.700;2023-06-26T00:29:06;98112.66;;;16.34;100.00
75425;BME280;64007;50.632;13.700;2023-06-26T00:31:32;98112.13;;;16.30;100.00
75425;BME280;64007;50.632;13.700;2023-06-26T00:33:57;98112.44;;;16.27;100.00
75425;BME280;64007;50.632;13.700;2023-06-26T00:36:23;98110.09;;;16.24;100.00
75425;BME280;64007;50.632;13.700;2023-06-26T00:38:49;98109.41;;;16.22;100.00
75425;BME280;64007;50.632;13.700;2023-06-26T00:41:15;98108.34;;;16.15;100.00
75425;BME280;64007;50.632;13.700;2023-06-26T00:43:41;98102.31;;;16.13;100.00
75425;BME280;64007;50.632;13.700;2023-06-26T00:46:10;98102.16;;;16.15;100.00
75425;BME280;64007;50.632;13.700;2023-06-26T00:48:37;98104.81;;;16.15;100.00
75425;BME280;64007;50.632;13.700;2023-06-26T00:51:03;98101.47;;;16.13;100.00
75425;BME280;64007;50.632;13.700;2023-06-26T00:53:30;98101.63;;;16.11;100.00
75425;BME280;64007;50.632;13.700;2023-06-26T00:55:56;98101.66;;;16.19;100.00
75425;BME280;64007;50.632;13.700;2023-06-26T00:58:24;98103.81;;;16.16;100.00
75425;BME280;64007;50.632;13.700;2023-06-26T01:00:51;98096.56;;;16.08;100.00
75425;BME280;64007;50.632;13.700;2023-06-26T01:03:17;98100.25;;;16.07;100.00
75425;BME280;64007;50.632;13.700;2023-06-26T01:05:43;98091.84;;;16.02;100.00
75425;BME280;64007;50.632;13.700;2023-06-26T01:08:12;98099.47;;;15.97;100.00
75425;BME280;64007;50.632;13.700;2023-06-26T01:10:38;98085.38;;;15.95;100.00
75425;BME280;64007;50.632;13.700;2023-06-26T01:13:05;98097.78;;;15.96;100.00
75425;BME280;64007;50.632;13.700;2023-06-26T01:15:30;98092.44;;;15.96;100.00
75425;BME280;64007;50.632;13.700;2023-06-26T01:17:58;98090.75;;;15.95;100.00
75425;BME280;64007;50.632;13.700;2023-06-26T01:20:25;98093.78;;;16.00;100.00
75425;BME280;64007;50.632;13.700;2023-06-26T01:28:19;98084.16;;;16.07;100.00
75425;BME280;64007;50.632;13.700;2023-06-26T01:30:45;98094.03;;;16.07;100.00
75425;BME280;64007;50.632;13.700;2023-06-26T01:33:13;98094.56;;;16.10;100.00
75425;BME280;64007;50.632;13.700;2023-06-26T01:35:40;98088.53;;;16.08;100.00
75425;BME280;64007;50.632;13.700;2023-06-26T01:38:20;98089.72;;;16.14;100.00
75425;BME280;64007;50.632;13.700;2023-06-26T01:40:46;98093.72;;;16.10;100.00
75425;BME280;64007;50.632;13.700;2023-06-26T01:45:58;98084.78;;;16.01;100.00
75425;BME280;64007;50.632;13.700;2023-06-26T01:48:31;98086.75;;;15.99;100.00
75425;BME280;64007;50.632;13.700;2023-06-26T01:50:58;98081.69;;;15.96;100.00
75425;BME280;64007;50.632;13.700;2023-06-26T01:53:29;98082.38;;;15.98;100.00
75425;BME280;64007;50.632;13.700;2023-06-26T01:56:00;98080.78;;;16.05;100.00
75425;BME280;64007;50.632;13.700;2023-06-26T01:58:31;98077.47;;;16.11;100.00
75425;BME280;64007;50.632;13.700;2023-06-26T02:00:59;98074.16;;;16.17;100.00
75425;BME280;64007;50.632;13.700;2023-06-26T02:03:25;98071.31;;;16.19;100.00
75425;BME280;64007;50.632;13.700;2023-06-26T02:05:50;98073.84;;;16.20;100.00
75425;BME280;64007;50.632;13.700;2023-06-26T02:08:16;98076.38;;;16.22;100.00
75425;BME280;64007;50.632;13.700;2023-06-26T02:10:42;98061.09;;;16.22;100.00
75425;BME280;64007;50.632;13.700;2023-06-26T02:13:08;98068.16;;;16.23;100.00
75425;BME280;64007;50.632;13.700;2023-06-26T02:15:34;98069.84;;;16.24;100.00
75425;BME280;64007;50.632;13.700;2023-06-26T02:17:59;98071.84;;;16.22;100.00
75425;BME280;64007;50.632;13.700;2023-06-26T02:20:25;98065.09;;;16.18;100.00
75425;BME280;64007;50.632;13.700;2023-06-26T02:22:51;98065.25;;;16.17;100.00
75425;BME280;64007;50.632;13.700;2023-06-26T02:25:17;98056.00;;;16.11;100.00
75425;BME280;64007;50.632;13.700;2023-06-26T02:27:43;98059.38;;;16.13;100.00
75425;BME280;64007;50.632;13.700;2023-06-26T02:30:09;98065.75;;;16.12;100.00
75425;BME280;64007;50.632;13.700;2023-06-26T02:32:35;98056.16;;;16.10;100.00
75425;BME280;64007;50.632;13.700;2023-06-26T02:35:01;98056.69;;;16.13;100.00
75425;BME280;64007;50.632;13.700;2023-06-26T02:37:27;98057.53;;;16.14;100.00
75425;BME280;64007;50.632;13.700;2023-06-26T02:39:53;98057.16;;;16.09;100.00
75425;BME280;64007;50.632;13.700;2023-06-26T02:42:18;98052.34;;;16.12;100.00
75425;BME280;64007;50.632;13.700;2023-06-26T02:44:44;98056.00;;;16.11;100.00
75425;BME280;64007;50.632;13.700;2023-06-26T02:47:10;98056.34;;;16.08;100.00
75425;BME280;64007;50.632;13.700;2023-06-26T02:49:35;98049.13;;;16.09;100.00
75425;BME280;64007;50.632;13.700;2023-06-26T02:52:01;98056.50;;;16.07;100.00
75425;BME280;64007;50.632;13.700;2023-06-26T02:54:27;98051.31;;;16.13;100.00
75425;BME280;64007;50.632;13.700;2023-06-26T02:56:53;98046.28;;;16.10;100.00
75425;BME280;64007;50.632;13.700;2023-06-26T02:59:18;98059.38;;;16.13;100.00
75425;BME280;64007;50.632;13.700;2023-06-26T03:01:44;98054.84;;;16.14;100.00
75425;BME280;64007;50.632;13.700;2023-06-26T03:04:10;98053.69;;;16.16;100.00
75425;BME280;64007;50.632;13.700;2023-06-26T03:06:36;98061.44;;;16.19;100.00
75425;BME280;64007;50.632;13.700;2023-06-26T03:09:02;98059.75;;;16.18;100.00
75425;BME280;64007;50.632;13.700;2023-06-26T03:11:28;98059.75;;;16.18;100.00
75425;BME280;64007;50.632;13.700;2023-06-26T03:13:54;98055.75;;;16.22;100.00
75425;BME280;64007;50.632;13.700;2023-06-26T03:16:21;98059.44;;;16.21;100.00
75425;BME280;64007;50.632;13.700;2023-06-26T03:18:46;98054.91;;;16.22;100.00
75425;BME280;64007;50.632;13.700;2023-06-26T03:21:12;98056.41;;;16.24;100.00
75425;BME280;64007;50.632;13.700;2023-06-26T03:23:38;98061.31;;;16.29;100.00
75425;BME280;64007;50.632;13.700;2023-06-26T03:26:04;98056.16;;;16.36;100.00
75425;BME280;64007;50.632;13.700;2023-06-26T03:28:29;98057.22;;;16.43;100.00
75425;BME280;64007;50.632;13.700;2023-06-26T03:30:57;98057.72;;;16.46;100.00
75425;BME280;64007;50.632;13.700;2023-06-26T03:33:22;98052.56;;;16.53;100.00
75425;BME280;64007;50.632;13.700;2023-06-26T03:35:48;98051.25;;;16.57;100.00
75425;BME280;64007;50.632;13.700;2023-06-26T03:38:14;98056.63;;;16.65;100.00
75425;BME280;64007;50.632;13.700;2023-06-26T03:40:41;98055.69;;;16.74;100.00
75425;BME280;64007;50.632;13.700;2023-06-26T03:43:06;98048.53;;;16.83;100.00
75425;BME280;64007;50.632;13.700;2023-06-26T03:45:32;98047.56;;;16.92;100.00
75425;BME280;64007;50.632;13.700;2023-06-26T03:47:58;98048.75;;;16.98;100.00
75425;BME280;64007;50.632;13.700;2023-06-26T03:50:24;98045.06;;;17.07;100.00
75425;BME280;64007;50.632;13.700;2023-06-26T03:52:49;98050.28;;;17.16;100.00
75425;BME280;64007;50.632;13.700;2023-06-26T03:55:17;98048.47;;;17.25;100.00
75425;BME280;64007;50.632;13.700;2023-06-26T03:57:44;98035.06;;;17.33;100.00
75425;BME280;64007;50.632;13.700;2023-06-26T04:00:10;98039.09;;;17.37;100.00
75425;BME280;64007;50.632;13.700;2023-06-26T04:02:37;98035.91;;;17.42;100.00
75425;BME280;64007;50.632;13.700;2023-06-26T04:05:04;98034.72;;;17.44;100.00
75425;BME280;64007;50.632;13.700;2023-06-26T04:07:30;98039.94;;;17.46;100.00
75425;BME280;64007;50.632;13.700;2023-06-26T04:09:57;98032.38;;;17.49;100.00
75425;BME280;64007;50.632;13.700;2023-06-26T04:12:23;98039.09;;;17.45;100.00
75425;BME280;64007;50.632;13.700;2023-06-26T04:14:49;98039.75;;;17.39;100.00
75425;BME280;64007;50.632;13.700;2023-06-26T04:17:14;98031.69;;;17.39;100.00
75425;BME280;64007;50.632;13.700;2023-06-26T04:19:40;98028.34;;;17.37;100.00
75425;BME280;64007;50.632;13.700;2023-06-26T04:22:06;98021.94;;;17.38;100.00
75425;BME280;64007;50.632;13.700;2023-06-26T04:24:32;98023.63;;;17.39;100.00
75425;BME280;64007;50.632;13.700;2023-06-26T04:26:57;98032.38;;;17.41;100.00
75425;BME280;64007;50.632;13.700;2023-06-26T04:29:25;98031.19;;;17.44;100.00
75425;BME280;64007;50.632;13.700;2023-06-26T04:31:51;98024.13;;;17.51;100.00
75425;BME280;64007;50.632;13.700;2023-06-26T04:34:17;98029.50;;;17.59;100.00
75425;BME280;64007;50.632;13.700;2023-06-26T04:36:43;98033.75;;;17.70;100.00
75425;BME280;64007;50.632;13.700;2023-06-26T04:39:14;98036.09;;;17.81;100.00
75425;BME280;64007;50.632;13.700;2023-06-26T04:41:43;98029.69;;;17.90;100.00
75425;BME280;64007;50.632;13.700;2023-06-26T04:44:09;98034.41;;;18.04;100.00
75425;BME280;64007;50.632;13.700;2023-06-26T04:46:36;98029.66;;;18.23;100.00
75425;BME280;64007;50.632;13.700;2023-06-26T04:49:02;98023.25;;;18.24;100.00
75425;BME280;64007;50.632;13.700;2023-06-26T04:51:28;98024.94;;;18.25;100.00
75425;BME280;64007;50.632;13.700;2023-06-26T04:53:54;98019.22;;;18.28;100.00
75425;BME280;64007;50.632;13.700;2023-06-26T04:56:20;98024.91;;;18.33;100.00
75425;BME280;64007;50.632;13.700;2023-06-26T04:58:46;98023.19;;;18.40;100.00
75425;BME280;64007;50.632;13.700;2023-06-26T05:01:11;98022.72;;;18.44;100.00
75425;BME280;64007;50.632;13.700;2023-06-26T05:03:39;98019.94;;;18.61;100.00
75425;BME280;64007;50.632;13.700;2023-06-26T05:06:05;98014.25;;;18.56;100.00
75425;BME280;64007;50.632;13.700;2023-06-26T05:08:31;98018.44;;;18.66;100.00
75425;BME280;64007;50.632;13.700;2023-06-26T05:10:56;98018.44;;;18.66;100.00
75425;BME280;64007;50.632;13.700;2023-06-26T05:13:24;98024.44;;;18.76;100.00
75425;BME280;64007;50.632;13.700;2023-06-26T05:15:52;98019.22;;;18.83;100.00
75425;BME280;64007;50.632;13.700;2023-06-26T05:18:19;98022.00;;;18.98;100.00
75425;BME280;64007;50.632;13.700;2023-06-26T05:20:45;98021.47;;;19.02;100.00
75425;BME280;64007;50.632;13.700;2023-06-26T05:23:12;98016.16;;;19.17;100.00
75425;BME280;64007;50.632;13.700;2023-06-26T05:25:38;98019.59;;;19.34;100.00
75425;BME280;64007;50.632;13.700;2023-06-26T05:28:04;98014.38;;;19.32;100.00
75425;BME280;64007;50.632;13.700;2023-06-26T05:30:35;98012.69;;;19.31;100.00
75425;BME280;64007;50.632;13.700;2023-06-26T05:33:02;98014.00;;;19.35;100.00
75425;BME280;64007;50.632;13.700;2023-06-26T05:35:29;98019.16;;;19.45;100.00
75425;BME280;64007;50.632;13.700;2023-06-26T05:37:56;98009.47;;;19.59;100.00
75425;BME280;64007;50.632;13.700;2023-06-26T05:40:22;98004.81;;;19.53;100.00
75425;BME280;64007;50.632;13.700;2023-06-26T05:42:49;98010.06;;;19.46;100.00
75425;BME280;64007;50.632;13.700;2023-06-26T05:45:15;98004.28;;;19.49;100.00
75425;BME280;64007;50.632;13.700;2023-06-26T05:47:41;98002.75;;;19.55;100.00
75425;BME280;64007;50.632;13.700;2023-06-26T05:50:08;98002.41;;;19.58;100.00
75425;BME280;64007;50.632;13.700;2023-06-26T05:52:35;98004.31;;;19.72;99.46
75425;BME280;64007;50.632;13.700;2023-06-26T05:55:01;98008.72;;;19.88;95.99
75425;BME280;64007;50.632;13.700;2023-06-26T05:57:29;98009.78;;;20.01;96.32
75425;BME280;64007;50.632;13.700;2023-06-26T05:59:55;98010.19;;;20.13;96.52
75425;BME280;64007;50.632;13.700;2023-06-26T06:02:22;98006.19;;;20.24;94.37
75425;BME280;64007;50.632;13.700;2023-06-26T06:04:47;98007.09;;;20.31;96.87
75425;BME280;64007;50.632;13.700;2023-06-26T06:07:13;97997.06;;;20.40;91.64
75425;BME280;64007;50.632;13.700;2023-06-26T06:09:39;98007.63;;;20.49;94.51
75425;BME280;64007;50.632;13.700;2023-06-26T06:12:06;98004.28;;;20.47;93.31
75425;BME280;64007;50.632;13.700;2023-06-26T06:14:32;98000.53;;;20.48;93.87
75425;BME280;64007;50.632;13.700;2023-06-26T06:16:58;97998.66;;;20.63;90.84
75425;BME280;64007;50.632;13.700;2023-06-26T06:19:24;97993.09;;;20.50;87.47
75425;BME280;64007;50.632;13.700;2023-06-26T06:21:50;97997.75;;;20.56;90.06
75425;BME280;64007;50.632;13.700;2023-06-26T06:24:15;98000.72;;;20.47;89.68
75425;BME280;64007;50.632;13.700;2023-06-26T06:26:41;97996.44;;;20.52;89.45
75425;BME280;64007;50.632;13.700;2023-06-26T06:29:07;98001.19;;;20.50;90.88
75425;BME280;64007;50.632;13.700;2023-06-26T06:31:32;97996.22;;;20.69;89.60
75425;BME280;64007;50.632;13.700;2023-06-26T06:33:58;97988.69;;;20.64;88.01
75425;BME280;64007;50.632;13.700;2023-06-26T06:36:24;97991.16;;;20.95;87.60
75425;BME280;64007;50.632;13.700;2023-06-26T06:38:50;97980.72;;;20.92;87.90
75425;BME280;64007;50.632;13.700;2023-06-26T06:41:15;97983.81;;;20.89;87.09
75425;BME280;64007;50.632;13.700;2023-06-26T06:43:42;97985.69;;;21.10;85.54
75425;BME280;64007;50.632;13.700;2023-06-26T06:46:08;97985.50;;;21.11;87.73
75425;BME280;64007;50.632;13.700;2023-06-26T06:48:34;97984.22;;;21.07;87.38
75425;BME280;64007;50.632;13.700;2023-06-26T06:51:00;97978.63;;;21.23;85.76
75425;BME280;64007;50.632;13.700;2023-06-26T06:53:26;97984.03;;;21.23;86.72
75425;BME280;64007;50.632;13.700;2023-06-26T06:55:52;97980.66;;;21.21;89.02
75425;BME280;64007;50.632;13.700;2023-06-26T06:58:17;97976.69;;;21.39;88.99
75425;BME280;64007;50.632;13.700;2023-06-26T07:00:45;97976.94;;;21.44;88.33
75425;BME280;64007;50.632;13.700;2023-06-26T07:03:11;97972.41;;;21.51;85.48
75425;BME280;64007;50.632;13.700;2023-06-26T07:05:37;97975.34;;;21.77;85.79
75425;BME280;64007;50.632;13.700;2023-06-26T07:08:03;97974.13;;;21.80;87.09
75425;BME280;64007;50.632;13.700;2023-06-26T07:10:30;97971.03;;;22.04;83.86
75425;BME280;64007;50.632;13.700;2023-06-26T07:12:56;97966.53;;;22.18;83.22
75425;BME280;64007;50.632;13.700;2023-06-26T07:15:22;97968.25;;;22.32;80.52
75425;BME280;64007;50.632;13.700;2023-06-26T07:17:47;97966.44;;;22.39;81.27
75425;BME280;64007;50.632;13.700;2023-06-26T07:20:13;97965.47;;;22.54;77.49
75425;BME280;64007;50.632;13.700;2023-06-26T07:22:42;97967.28;;;22.81;78.97
75425;BME280;64007;50.632;13.700;2023-06-26T07:25:09;97963.91;;;22.79;74.08
75425;BME280;64007;50.632;13.700;2023-06-26T07:27:35;97968.38;;;22.87;70.28
75425;BME280;64007;50.632;13.700;2023-06-26T07:30:02;97970.06;;;22.94;71.39
75425;BME280;64007;50.632;13.700;2023-06-26T07:32:28;97963.59;;;22.95;72.82
75425;BME280;64007;50.632;13.700;2023-06-26T07:34:54;97965.72;;;23.13;71.04
75425;BME280;64007;50.632;13.700;2023-06-26T07:37:20;97961.75;;;23.16;70.18
75425;BME280;64007;50.632;13.700;2023-06-26T07:39:47;97961.75;;;23.16;69.80
75425;BME280;64007;50.632;13.700;2023-06-26T07:42:13;97953.59;;;23.02;67.02
75425;BME280;64007;50.632;13.700;2023-06-26T07:44:39;97957.84;;;23.25;69.54
75425;BME280;64007;50.632;13.700;2023-06-26T07:47:04;97957.44;;;23.41;69.84
75425;BME280;64007;50.632;13.700;2023-06-26T07:49:30;97958.69;;;23.38;65.71
75425;BME280;64007;50.632;13.700;2023-06-26T07:51:56;97957.63;;;23.33;66.07
75425;BME280;64007;50.632;13.700;2023-06-26T07:54:22;97962.03;;;23.40;66.64
75425;BME280;64007;50.632;13.700;2023-06-26T07:56:59;97953.88;;;23.54;71.27
75425;BME280;64007;50.632;13.700;2023-06-26T07:59:27;97951.38;;;23.52;64.12
75425;BME280;64007;50.632;13.700;2023-06-26T08:01:54;97942.88;;;23.62;67.22
75425;BME280;64007;50.632;13.700;2023-06-26T08:04:21;97952.91;;;23.74;69.13
75425;BME280;64007;50.632;13.700;2023-06-26T08:06:53;97952.25;;;23.86;66.42
75425;BME280;64007;50.632;13.700;2023-06-26T08:09:21;97952.69;;;23.83;65.11
75425;BME280;64007;50.632;13.700;2023-06-26T08:11:47;97952.69;;;23.83;62.34
75425;BME280;64007;50.632;13.700;2023-06-26T08:14:13;97947.44;;;23.88;62.28
75425;BME280;64007;50.632;13.700;2023-06-26T08:16:39;97948.69;;;24.05;65.89
75425;BME280;64007;50.632;13.700;2023-06-26T08:19:05;97950.97;;;24.21;63.64
75425;BME280;64007;50.632;13.700;2023-06-26T08:21:31;97955.56;;;24.21;60.63
75425;BME280;64007;50.632;13.700;2023-06-26T08:23:57;97941.56;;;24.24;63.21
75425;BME280;64007;50.632;13.700;2023-06-26T08:26:23;97943.66;;;24.28;62.47
75425;BME280;64007;50.632;13.700;2023-06-26T08:28:49;97938.66;;;24.12;59.77
75425;BME280;64007;50.632;13.700;2023-06-26T08:31:15;97934.47;;;24.10;61.45
75425;BME280;64007;50.632;13.700;2023-06-26T08:33:41;97929.66;;;24.18;59.55
75425;BME280;64007;50.632;13.700;2023-06-26T08:36:07;97939.47;;;24.32;64.36
75425;BME280;64007;50.632;13.700;2023-06-26T08:38:33;97931.41;;;24.64;63.43
75425;BME280;64007;50.632;13.700;2023-06-26T08:40:59;97919.81;;;24.88;65.38
75425;BME280;64007;50.632;13.700;2023-06-26T08:43:25;97928.53;;;24.97;60.54
75425;BME280;64007;50.632;13.700;2023-06-26T08:45:53;97921.66;;;25.01;62.51
75425;BME280;64007;50.632;13.700;2023-06-26T08:48:20;97919.97;;;25.00;58.34
75425;BME280;64007;50.632;13.700;2023-06-26T08:50:48;97922.13;;;24.78;57.43
75425;BME280;64007;50.632;13.700;2023-06-26T08:53:28;97918.94;;;24.94;60.00
75425;BME280;64007;50.632;13.700;2023-06-26T08:55:57;97913.91;;;24.98;61.71
75425;BME280;64007;50.632;13.700;2023-06-26T08:58:23;97910.56;;;25.34;61.52
75425;BME280;64007;50.632;13.700;2023-06-26T09:00:49;97906.94;;;25.40;63.20
75425;BME280;64007;50.632;13.700;2023-06-26T09:03:16;97912.06;;;25.55;59.34
75425;BME280;64007;50.632;13.700;2023-06-26T09:05:42;97920.16;;;25.61;58.34
75425;BME280;64007;50.632;13.700;2023-06-26T09:08:08;97917.53;;;25.80;57.71
75425;BME280;64007;50.632;13.700;2023-06-26T09:10:34;97921.09;;;25.80;57.40
75425;BME280;64007;50.632;13.700;2023-06-26T09:13:00;97908.47;;;25.86;58.09
75425;BME280;64007;50.632;13.700;2023-06-26T09:15:47;97919.22;;;25.99;59.04
75425;BME280;64007;50.632;13.700;2023-06-26T09:18:13;97907.84;;;26.09;57.70
75425;BME280;64007;50.632;13.700;2023-06-26T09:20:42;97911.09;;;26.17;55.12
75425;BME280;64007;50.632;13.700;2023-06-26T09:23:09;97905.03;;;26.15;57.91
75425;BME280;64007;50.632;13.700;2023-06-26T09:25:38;97907.91;;;26.20;56.15
75425;BME280;64007;50.632;13.700;2023-06-26T09:28:05;97899.44;;;26.10;54.85
75425;BME280;64007;50.632;13.700;2023-06-26T09:30:33;97897.16;;;26.07;55.81
75425;BME280;64007;50.632;13.700;2023-06-26T09:33:16;97898.53;;;26.16;57.67
75425;BME280;64007;50.632;13.700;2023-06-26T09:35:42;97892.47;;;26.33;56.06
75425;BME280;64007;50.632;13.700;2023-06-26T09:38:08;97892.19;;;26.41;54.27
75425;BME280;64007;50.632;13.700;2023-06-26T09:40:34;97891.34;;;26.59;54.50
75425;BME280;64007;50.632;13.700;2023-06-26T09:43:04;97879.63;;;26.58;54.33
75425;BME280;64007;50.632;13.700;2023-06-26T09:45:32;97880.50;;;26.70;52.61
75425;BME280;64007;50.632;13.700;2023-06-26T09:48:01;97879.19;;;26.91;55.16
75425;BME280;64007;50.632;13.700;2023-06-26T09:50:30;97877.25;;;27.10;55.71
75425;BME280;64007;50.632;13.700;2023-06-26T09:53:12;97882.09;;;27.08;51.39
75425;BME280;64007;50.632;13.700;2023-06-26T09:55:43;97871.53;;;27.00;50.59
75425;BME280;64007;50.632;13.700;2023-06-26T09:58:13;97871.59;;;27.23;55.07
75425;BME280;64007;50.632;13.700;2023-06-26T10:00:41;97862.00;;;27.44;50.63
75425;BME280;64007;50.632;13.700;2023-06-26T10:03:08;97864.75;;;27.56;52.64
75425;BME280;64007;50.632;13.700;2023-06-26T10:05:35;97864.22;;;27.65;51.85
75425;BME280;64007;50.632;13.700;2023-06-26T10:08:02;97858.16;;;27.75;51.39
75425;BME280;64007;50.632;13.700;2023-06-26T10:10:28;97858.59;;;27.95;48.93
75425;BME280;64007;50.632;13.700;2023-06-26T10:12:59;97854.31;;;28.11;50.74
75425;BME280;64007;50.632;13.700;2023-06-26T10:15:27;97848.84;;;28.23;51.06
75425;BME280;64007;50.632;13.700;2023-06-26T10:17:56;97842.44;;;28.29;48.52
75425;BME280;64007;50.632;13.700;2023-06-26T10:20:23;97836.09;;;28.40;51.15
75425;BME280;64007;50.632;13.700;2023-06-26T10:22:50;97839.53;;;28.47;48.79
75425;BME280;64007;50.632;13.700;2023-06-26T10:25:19;97834.66;;;28.49;47.88
75425;BME280;64007;50.632;13.700;2023-06-26T10:27:50;97827.22;;;28.61;50.03
75425;BME280;64007;50.632;13.700;2023-06-26T10:30:21;97829.97;;;28.61;47.15
75425;BME280;64007;50.632;13.700;2023-06-26T10:32:48;97829.09;;;28.44;45.66
75425;BME280;64007;50.632;13.700;2023-06-26T10:35:14;97824.31;;;28.51;46.33
75425;BME280;64007;50.632;13.700;2023-06-26T10:37:48;97815.88;;;28.69;49.00
75425;BME280;64007;50.632;13.700;2023-06-26T10:40:21;97817.25;;;28.84;45.96
75425;BME280;64007;50.632;13.700;2023-06-26T10:42:48;97819.31;;;29.05;47.68
75425;BME280;64007;50.632;13.700;2023-06-26T10:45:15;97817.19;;;29.24;44.41
75425;BME280;64007;50.632;13.700;2023-06-26T10:47:46;97805.72;;;29.27;42.61
75425;BME280;64007;50.632;13.700;2023-06-26T10:50:32;97805.31;;;29.52;43.73
75425;BME280;64007;50.632;13.700;2023-06-26T10:55:34;97804.78;;;29.88;43.76
75425;BME280;64007;50.632;13.700;2023-06-26T10:58:01;97803.25;;;30.14;42.15
75425;BME280;64007;50.632;13.700;2023-06-26T11:00:28;97788.69;;;30.36;42.05
75425;BME280;64007;50.632;13.700;2023-06-26T11:02:56;97791.03;;;30.49;42.97
75425;BME280;64007;50.632;13.700;2023-06-26T11:05:29;97785.19;;;30.62;44.08
75425;BME280;64007;50.632;13.700;2023-06-26T11:08:09;97786.66;;;30.75;41.26
75425;BME280;64007;50.632;13.700;2023-06-26T11:10:51;97778.59;;;30.63;39.52
75425;BME280;64007;50.632;13.700;2023-06-26T11:13:19;97783.88;;;30.70;39.16
75425;BME280;64007;50.632;13.700;2023-06-26T11:15:45;97778.66;;;30.68;40.17
75425;BME280;64007;50.632;13.700;2023-06-26T11:18:12;97770.91;;;30.87;39.48
75425;BME280;64007;50.632;13.700;2023-06-26T11:20:38;97778.97;;;30.99;37.86
75425;BME280;64007;50.632;13.700;2023-06-26T11:23:04;97777.16;;;31.14;37.57
75425;BME280;64007;50.632;13.700;2023-06-26T11:25:36;97775.38;;;31.62;39.04
75425;BME280;64007;50.632;13.700;2023-06-26T11:28:03;97765.66;;;31.92;38.67
75425;BME280;64007;50.632;13.700;2023-06-26T11:30:30;97772.47;;;32.31;37.78
75425;BME280;64007;50.632;13.700;2023-06-26T11:33:06;97761.53;;;32.47;34.89
75425;BME280;64007;50.632;13.700;2023-06-26T11:35:32;97758.84;;;32.82;34.83
75425;BME280;64007;50.632;13.700;2023-06-26T11:37:59;97761.00;;;32.50;36.88
75425;BME280;64007;50.632;13.700;2023-06-26T11:40:29;97753.84;;;32.59;34.82
75425;BME280;64007;50.632;13.700;2023-06-26T11:43:01;97754.22;;;33.49;36.64
75425;BME280;64007;50.632;13.700;2023-06-26T11:45:31;97753.88;;;33.91;34.33
75425;BME280;64007;50.632;13.700;2023-06-26T11:47:58;97750.91;;;34.47;33.71
75425;BME280;64007;50.632;13.700;2023-06-26T11:50:24;97749.19;;;35.39;38.12
75425;BME280;64007;50.632;13.700;2023-06-26T11:52:57;97738.31;;;35.14;32.59
75425;BME280;64007;50.632;13.700;2023-06-26T11:55:24;97754.41;;;35.07;27.00
75425;BME280;64007;50.632;13.700;2023-06-26T11:57:52;97749.72;;;35.41;30.95
75425;BME280;64007;50.632;13.700;2023-06-26T12:00:19;97741.28;;;35.80;30.25
75425;BME280;64007;50.632;13.700;2023-06-26T12:02:46;97737.78;;;36.23;27.47
75425;BME280;64007;50.632;13.700;2023-06-26T12:05:13;97729.19;;;37.18;32.28
75425;BME280;64007;50.632;13.700;2023-06-26T12:07:41;97735.00;;;36.47;27.27
75425;BME280;64007;50.632;13.700;2023-06-26T12:10:09;97725.66;;;36.80;30.02
75425;BME280;64007;50.632;13.700;2023-06-26T12:12:36;97725.66;;;36.19;29.55
75425;BME280;64007;50.632;13.700;2023-06-26T12:15:02;97727.22;;;36.25;28.48
75425;BME280;64007;50.632;13.700;2023-06-26T12:17:28;97727.63;;;36.37;27.75
75425;BME280;64007;50.632;13.700;2023-06-26T12:19:54;97723.19;;;35.93;27.29
75425;BME280;64007;50.632;13.700;2023-06-26T12:22:20;97713.97;;;36.46;29.92
75425;BME280;64007;50.632;13.700;2023-06-26T12:24:46;97706.09;;;36.71;28.70
75425;BME280;64007;50.632;13.700;2023-06-26T12:27:14;97697.84;;;37.04;29.25
75425;BME280;64007;50.632;13.700;2023-06-26T12:29:45;97699.91;;;37.12;26.83
75425;BME280;64007;50.632;13.700;2023-06-26T12:32:11;97697.91;;;37.91;27.03
75425;BME280;64007;50.632;13.700;2023-06-26T12:34:39;97694.03;;;38.70;23.44
75425;BME280;64007;50.632;13.700;2023-06-26T12:37:08;97699.09;;;38.90;24.38
75425;BME280;64007;50.632;13.700;2023-06-26T12:39:53;97693.78;;;38.30;23.42
75425;BME280;64007;50.632;13.700;2023-06-26T12:42:33;97689.28;;;38.07;23.57
75425;BME280;64007;50.632;13.700;2023-06-26T12:44:59;97689.03;;;38.80;24.30
75425;BME280;64007;50.632;13.700;2023-06-26T12:47:28;97697.06;;;40.28;28.42
75425;BME280;64007;50.632;13.700;2023-06-26T12:49:56;97679.28;;;40.98;22.11
75425;BME280;64007;50.632;13.700;2023-06-26T12:52:23;97681.88;;;40.52;22.07
75425;BME280;64007;50.632;13.700;2023-06-26T12:54:53;97670.53;;;38.76;21.72
75425;BME280;64007;50.632;13.700;2023-06-26T12:57:19;97676.28;;;38.43;22.31